Latest Coastal Weather Observations for Cerberus

IDV60701

Issued at 9:51 pm EDT Monday 20 February 2017 (issued every 10 minutes, with the page automatically refreshed every 10 minutes)

About coastal observations | Map of coastal stations | Coastal observations for VIC | Marine services | Other Formats
Station Details ID: 086361 Name: CERBERUS Lat: -38.36 Lon: 145.18 Height: 12.69 m
Data from the previous 72 hours. | See also: Recent months at Cerberus
Date/Time
EDT
Temp
°C
Wind Pressure Rain since
9am
mm
Weather Cloud Vis
km
Sea
Height
m
Swell
Dir  Spd
kts
Gust
kts
hPa Trend Height
m
Period
s
Dir
20/09:30pm 15.0 WSW 6 11 1017.3 - 2.2 - - - - - - -
20/09:00pm 14.6 WSW 6 10 1016.8 - 2.2 - - - - - - -
20/08:30pm 14.6 SW 9 17 1016.3 - 2.2 - - - - - - -
20/08:00pm 15.3 WSW 7 12 1015.8 - 2.2 - - - - - - -
20/07:30pm 15.6 WSW 11 20 1015.5 - 2.2 - - - - - - -
20/07:00pm 15.9 SW 11 18 1015.1 - 2.2 - - - - - - -
20/06:30pm 16.6 SW 13 20 1014.8 - 2.2 - - - - - - -
20/06:00pm 17.6 SW 14 23 1014.3 - 2.2 - - - - - - -
20/05:30pm 17.8 WSW 15 22 1014.0 - 2.2 - - - - - - -
20/05:00pm 17.2 WSW 17 29 1013.6 - 2.2 - - - - - - -
20/04:51pm 18.1 SW 15 29 1013.5 - 2.2 - - - - - - -
20/04:30pm 18.2 SW 14 23 1013.4 - 2.2 - - - - - - -
20/04:15pm 16.8 SW 15 25 1013.4 - 2.2 - - - - - - -
20/04:00pm 17.0 SW 16 24 1013.3 - 2.2 - - - - - - -
20/03:30pm 17.1 SW 15 23 1013.1 - 2.2 - - - - - - -
20/03:17pm 15.1 SW 16 26 1013.2 - 2.2 - - - - - - -
20/03:00pm 17.8 SW 15 22 1013.0 - 2.2 Recent precip. - - - - - -
20/02:57pm 16.9 SW 16 26 1013.0 - 2.2 - - - - - - -
20/02:30pm 15.4 WSW 16 23 1013.1 - 2.2 - - - - - - -
20/02:00pm 17.6 WSW 14 19 1012.9 - 1.8 - - - - - - -
20/01:30pm 16.7 WSW 16 27 1012.6 - 1.8 - - - - - - -
20/01:28pm 17.1 WSW 15 27 1012.6 - 1.8 - - - - - - -
20/01:00pm 15.4 WSW 8 12 1012.7 - 1.8 - - - - - - -
20/12:30pm 14.9 WSW 9 14 1012.9 - 1.2 - - - - - - -
20/12:00pm 14.3 WSW 11 20 1013.0 - 0.8 Recent precip. - - - - - -
20/11:30am 14.3 SW 14 24 1012.5 - 0.6 - - - - - - -
20/11:00am 13.5 SW 11 23 1012.6 - 0.6 - - - - - - -
20/10:30am 16.0 SW 14 21 1012.2 - 0.2 - - - - - - -
20/10:00am 15.0 SW 10 16 1011.8 - 0.2 - - - - - - -
20/09:30am 15.0 SW 11 17 1011.5 - 0.0 - - - - - - -
20/09:00am 15.2 WSW 6 11 1011.1 - 10.2 - - - - - - -
20/08:30am 13.8 WNW 5 8 1010.9 - 10.2 - - - - - - -
20/08:00am 12.1 WNW 5 7 1010.5 - 10.2 - - - - - - -
20/07:30am 11.7 WNW 4 6 1010.2 - 10.2 - - - - - - -
20/07:00am 11.6 WNW 5 8 1009.9 - 10.2 - - - - - - -
20/06:30am 11.5 WNW 3 5 1009.5 - 10.2 - - - - - - -
20/06:00am 11.4 W 4 6 1009.3 - 10.2 - - - - - - -
20/05:30am 11.4 W 5 9 1008.9 - 10.2 - - - - - - -
20/05:00am 11.2 WNW 6 9 1008.7 - 10.2 - - - - - - -
20/04:30am 11.5 W 7 12 1008.6 - 9.0 - - - - - - -
20/04:00am 11.3 WNW 5 9 1008.6 - 8.0 - - - - - - -
20/03:30am 11.5 WNW 6 9 1008.6 - 7.6 - - - - - - -
20/03:00am 11.3 NW 8 12 1008.6 - 7.6 - - - - - - -
20/02:30am 11.1 WNW 5 7 1008.7 - 7.6 - - - - - - -
20/02:00am 11.4 WNW 7 11 1008.7 - 7.6 - - - - - - -
20/01:30am 11.2 WNW 5 7 1008.9 - 7.2 - - - - - - -
20/01:00am 11.7 WNW 6 9 1008.7 - 5.4 - - - - - - -
20/12:30am 11.5 NW 8 13 1008.9 - 5.4 - - - - - - -
20/12:00am 11.2 WNW 9 13 1009.1 - 5.4 Recent precip. - - - - - -
 
Date/Time
EDT
Temp
°C
Wind Pressure Rain since
9am
mm
Weather Cloud Vis
km
Sea
Height
m
Swell
Dir  Spd
kts
Gust
kts
hPa Trend Height
m
Period
s
Dir
19/11:30pm 10.9 NW 5 8 1009.1 - 5.0 - - - - - - -
19/11:00pm 11.2 WSW 6 11 1009.5 - 5.0 - - - - - - -
19/10:30pm 10.5 NW 5 7 1009.3 - 2.8 - - - - - - -
19/10:00pm 11.2 NW 5 7 1009.4 - 2.8 - - - - - - -
19/09:30pm 11.7 WNW 5 6 1009.2 - 2.8 - - - - - - -
19/09:00pm 11.7 WNW 4 6 1008.9 - 2.8 Rain - - - - - -
19/08:30pm 12.0 W 7 12 1008.7 - 2.6 - - - - - - -
19/08:00pm 12.8 W 7 13 1008.4 - 2.4 - - - - - - -
19/07:30pm 13.3 W 9 13 1007.8 - 2.4 - - - - - - -
19/07:00pm 13.8 W 12 17 1007.6 - 2.4 - - - - - - -
19/06:30pm 14.4 W 9 16 1007.4 - 2.4 - - - - - - -
19/06:00pm 13.5 W 12 22 1007.5 - 2.4 Recent precip. - - - - - -
19/05:30pm 12.9 WNW 8 13 1007.5 - 2.4 - - - - - - -
19/05:00pm 13.1 WSW 5 10 1007.3 - 2.2 - - - - - - -
19/04:30pm 11.7 WSW 7 11 1007.6 - 1.6 - - - - - - -
19/04:00pm 16.0 W 10 16 1007.1 - 0.0 - - - - - - -
19/03:30pm 15.0 W 12 21 1007.3 - 0.0 - - - - - - -
19/03:00pm 13.9 WSW 10 20 1007.4 - 0.0 - - - - - - -
19/02:30pm 15.9 NW 10 18 1007.2 - 0.0 - - - - - - -
19/02:00pm 13.1 NW 10 19 1007.8 - 0.0 - - - - - - -
19/01:30pm 16.1 WNW 12 21 1007.5 - 0.0 - - - - - - -
19/01:00pm 16.9 WNW 11 18 1007.7 - 0.0 - - - - - - -
19/12:30pm 15.8 WNW 11 18 1008.2 - 0.0 - - - - - - -
19/12:00pm 15.5 WNW 10 17 1008.4 - 0.0 - - - - - - -
19/11:30am 14.4 WNW 11 19 1008.7 - 0.0 - - - - - - -
19/11:00am 15.3 WNW 11 17 1008.7 - 0.0 - - - - - - -
19/10:30am 13.2 WSW 6 8 1009.0 - 0.0 - - - - - - -
19/10:00am 13.0 WNW 9 15 1009.1 - 0.0 - - - - - - -
19/09:30am 13.2 WNW 11 17 1008.9 - 0.0 - - - - - - -
19/09:00am 13.6 WNW 12 20 1008.7 - 2.4 - - - - - - -
19/08:30am 13.8 WNW 14 21 1008.5 - 2.4 - - - - - - -
19/08:00am 13.6 NW 12 20 1008.4 - 2.4 - - - - - - -
19/07:30am 13.1 NW 11 18 1008.3 - 2.4 - - - - - - -
19/07:00am 12.7 NW 11 18 1008.2 - 2.4 - - - - - - -
19/06:30am 12.6 NW 9 14 1008.2 - 2.4 - - - - - - -
19/06:00am 12.7 WNW 9 19 1008.2 - 2.4 - - - - - - -
19/05:30am 12.7 NW 10 16 1008.4 - 2.4 - - - - - - -
19/05:00am 12.6 WNW 10 17 1008.6 - 2.4 - - - - - - -
19/04:30am 12.2 NW 7 11 1008.7 - 2.4 - - - - - - -
19/04:00am 12.4 NW 7 10 1009.1 - 2.4 - - - - - - -
19/03:30am 12.4 NW 8 11 1009.5 - 2.4 - - - - - - -
19/03:00am 12.3 NW 7 10 1009.6 - 2.4 - - - - - - -
19/02:30am 12.5 NW 8 13 1010.0 - 2.4 - - - - - - -
19/02:00am 12.7 WNW 7 13 1010.3 - 2.4 - - - - - - -
19/01:30am 12.8 NW 6 10 1010.7 - 2.4 - - - - - - -
19/01:00am 12.2 WNW 5 7 1010.9 - 2.4 - - - - - - -
19/12:30am 12.3 WNW 5 7 1011.0 - 2.4 - - - - - - -
19/12:00am 11.0 NW 5 7 1011.1 - 2.4 - - - - - - -
 
Date/Time
EDT
Temp
°C
Wind Pressure Rain since
9am
mm
Weather Cloud Vis
km
Sea
Height
m
Swell
Dir  Spd
kts
Gust
kts
hPa Trend Height
m
Period
s
Dir
18/11:30pm 11.2 WNW 4 6 1011.2 - 2.4 - - - - - - -
18/11:00pm 10.7 NW 4 6 1011.2 - 2.4 - - - - - - -
18/10:30pm 10.4 N 3 5 1011.4 - 2.4 - - - - - - -
18/10:00pm 11.4 NNW 3 5 1011.7 - 2.4 - - - - - - -
18/09:30pm 11.8 WSW 2 3 1011.8 - 2.4 - - - - - - -
18/09:00pm 12.4 WSW 1 2 1011.5 - 2.4 - - - - - - -
18/08:30pm 13.3 WSW 2 4 1011.4 - 2.4 - - - - - - -
18/08:00pm 13.7 WSW 8 13 1011.5 - 2.4 - - - - - - -
18/07:30pm 14.7 WSW 7 10 1011.1 - 2.4 - - - - - - -
18/07:00pm 15.8 SW 10 15 1010.7 - 2.4 - - - - - - -
18/06:30pm 16.3 WSW 9 14 1010.6 - 2.4 - - - - - - -
18/06:00pm 16.7 SW 10 17 1010.5 - 2.4 - - - - - - -
18/05:30pm 16.0 SSW 10 15 1010.4 - 2.4 - - - - - - -
18/05:00pm 16.5 SSW 11 16 1010.2 - 2.4 - - - - - - -
18/04:30pm 17.5 SSW 12 16 1010.3 - 2.4 - - - - - - -
18/04:00pm 18.3 WSW 11 17 1010.5 - 2.4 - - - - - - -
18/03:30pm 17.6 SSW 9 15 1010.6 - 2.4 - - - - - - -
18/03:00pm 18.1 WSW 8 14 1010.8 - 2.4 - - - - - - -
18/02:30pm 17.1 WSW 8 13 1010.8 - 2.4 - - - - - - -
18/02:00pm 16.1 SW 10 17 1010.5 - 2.4 - - - - - - -
18/01:30pm 16.7 WSW 7 12 1010.6 - 2.4 - - - - - - -
18/01:00pm 15.7 SSW 5 8 1010.7 - 2.4 - - - - - - -
18/12:30pm 14.7 SSW 5 7 1010.8 - 2.4 - - - - - - -
18/12:00pm 13.2 S 4 7 1010.9 - 2.4 Recent precip. - - - - - -
18/11:30am 11.8 SSW 10 14 1011.3 - 1.2 - - - - - - -
18/11:00am 14.4 WNW 9 14 1011.0 - 0.0 - - - - - - -
18/10:30am 15.0 W 4 5 1010.9 - 0.0 - - - - - - -
18/10:00am 14.2 W 5 7 1010.9 - 0.0 - - - - - - -
18/09:30am 13.2 WSW 5 8 1010.7 - 0.0 - - - - - - -
18/09:00am 13.8 SW 8 12 1010.5 - 0.8 - - - - - - -
18/08:30am 12.8 SW 1 3 1010.4 - 0.8 - - - - - - -
18/08:00am 11.9 SW 3 5 1010.2 - 0.8 - - - - - - -
18/07:30am 13.7 W 5 9 1009.9 - 0.0 - - - - - - -
18/07:00am 13.5 WNW 4 6 1009.4 - 0.0 - - - - - - -
18/06:30am 14.1 WNW 4 7 1009.1 - 0.0 - - - - - - -
18/06:00am 14.4 WNW 5 7 1009.1 - 0.0 - - - - - - -
18/05:30am 14.7 WNW 4 5 1008.8 - 0.0 - - - - - - -
18/05:00am 14.8 WNW 5 7 1008.9 - 0.0 - - - - - - -
18/04:30am 15.1 W 5 7 1008.9 - 0.0 - - - - - - -
18/04:00am 15.1 W 4 6 1009.0 - 0.0 - - - - - - -
18/03:30am 15.1 W 3 5 1008.9 - 0.0 - - - - - - -
18/03:00am 15.4 W 3 5 1009.1 - 0.0 - - - - - - -
18/02:30am 15.6 W 6 11 1009.3 - 0.0 - - - - - - -
18/02:00am 15.9 W 5 7 1009.5 - 0.0 - - - - - - -
18/01:30am 16.1 W 4 7 1009.7 - 0.0 - - - - - - -
18/01:00am 16.2 WSW 4 7 1009.8 - 0.0 - - - - - - -
18/12:30am 16.3 W 4 6 1009.9 - 0.0 - - - - - - -
18/12:00am 16.3 W 3 4 1010.0 - 0.0 - - - - - - -
 
Date/Time
EDT
Temp
°C
Wind Pressure Rain since
9am
mm
Weather Cloud Vis
km
Sea
Height
m
Swell
Dir  Spd
kts
Gust
kts
hPa Trend Height
m
Period
s
Dir
17/11:30pm 16.5 W 6 9 1010.1 - 0.0 - - - - - - -
17/11:00pm 16.5 WSW 7 11 1010.3 - 0.0 - - - - - - -
17/10:30pm 16.5 WSW 9 14 1010.2 - 0.0 - - - - - - -
17/10:00pm 16.3 WSW 8 15 1010.1 - 0.0 - - - - - - -

Other Formats:

Comma delimited format used in spreadsheet applications
http://www.bom.gov.au/fwo/IDV60701/IDV60701.94898.axf

JavaScript Object Notation format (JSON) in row-major order
http://www.bom.gov.au/fwo/IDV60701/IDV60701.94898.json